createdAt,value
2022-07-31T00:01:32.739Z,14.93
2022-07-31T00:04:17.180Z,15.48
2022-07-31T00:06:50.387Z,16.30
2022-07-31T00:09:53.504Z,18.40
2022-07-31T00:11:58.607Z,18.67
2022-07-31T00:14:34.347Z,21.52
2022-07-31T00:17:08.992Z,17.32
2022-07-31T00:19:43.658Z,19.07
2022-07-31T00:22:15.821Z,15.30
2022-07-31T00:24:46.986Z,15.43
2022-07-31T00:27:15.851Z,19.35
2022-07-31T00:29:44.605Z,19.00
2022-07-31T00:32:13.334Z,25.43
2022-07-31T00:34:42.538Z,16.95
2022-07-31T00:37:12.784Z,17.20
2022-07-31T00:39:41.771Z,18.95
2022-07-31T00:42:25.203Z,20.57
2022-07-31T00:44:54.188Z,19.57
2022-07-31T00:47:25.635Z,23.65
2022-07-31T00:49:56.051Z,25.15
2022-07-31T00:52:25.216Z,22.73
2022-07-31T00:54:53.910Z,25.68
2022-07-31T00:57:25.429Z,25.92
2022-07-31T00:59:54.178Z,27.50
2022-07-31T01:02:23.095Z,24.57
2022-07-31T01:04:51.795Z,24.15
2022-07-31T01:07:20.409Z,26.17
2022-07-31T01:09:53.378Z,28.02
2022-07-31T01:12:43.005Z,28.47
2022-07-31T01:15:12.691Z,28.57
2022-07-31T01:17:42.460Z,27.15
2022-07-31T01:20:12.392Z,25.88
2022-07-31T01:23:01.916Z,27.45
2022-07-31T01:25:49.414Z,27.50
2022-07-31T01:28:26.886Z,21.35
2022-07-31T01:31:24.238Z,21.15
2022-07-31T01:33:34.926Z,21.68
2022-07-31T01:36:08.254Z,24.40
2022-07-31T01:38:45.184Z,21.87
2022-07-31T01:41:12.736Z,24.63
2022-07-31T01:43:43.763Z,28.10
2022-07-31T01:46:15.399Z,26.73
2022-07-31T01:48:51.232Z,23.95
2022-07-31T01:51:20.737Z,21.70
2022-07-31T01:54:14.019Z,23.73
2022-07-31T01:56:43.147Z,20.37
2022-07-31T01:59:22.610Z,19.07
2022-07-31T02:01:44.849Z,18.50
2022-07-31T02:04:16.610Z,17.32
2022-07-31T02:06:49.775Z,14.30
2022-07-31T02:09:23.952Z,16.17
2022-07-31T02:11:55.010Z,14.55
2022-07-31T02:14:26.872Z,17.35
2022-07-31T02:17:09.778Z,17.52
2022-07-31T02:19:41.371Z,20.25
2022-07-31T02:22:11.925Z,17.73
2022-07-31T02:24:42.240Z,21.25
2022-07-31T02:27:57.009Z,16.12
2022-07-31T02:29:46.489Z,16.00
2022-07-31T02:32:16.316Z,18.35
2022-07-31T02:34:46.448Z,19.37
2022-07-31T02:37:16.336Z,16.90
2022-07-31T02:39:45.637Z,19.35
2022-07-31T02:42:15.988Z,16.55
2022-07-31T02:44:45.290Z,19.77
2022-07-31T02:47:15.254Z,21.50
2022-07-31T02:49:46.714Z,21.07
2022-07-31T02:52:15.462Z,21.37
2022-07-31T02:54:45.380Z,23.95
2022-07-31T02:57:15.166Z,23.22
2022-07-31T02:59:44.135Z,22.42
2022-07-31T03:02:13.145Z,25.92
2022-07-31T03:04:41.967Z,22.98
2022-07-31T03:07:10.677Z,24.52
2022-07-31T03:09:41.050Z,24.52
2022-07-31T03:12:09.830Z,26.95
2022-07-31T03:14:39.544Z,25.15
2022-07-31T03:17:09.160Z,25.88
2022-07-31T03:19:38.082Z,22.45
2022-07-31T03:22:07.273Z,24.37
2022-07-31T03:24:37.005Z,20.23
2022-07-31T03:27:05.693Z,19.77
2022-07-31T03:29:43.246Z,22.52
2022-07-31T03:32:12.114Z,18.92
2022-07-31T03:34:40.771Z,20.97
2022-07-31T03:37:10.311Z,20.10
2022-07-31T03:39:39.327Z,19.90
2022-07-31T03:42:12.853Z,19.80
2022-07-31T03:44:45.190Z,23.20
2022-07-31T03:47:16.949Z,21.42
2022-07-31T03:49:46.264Z,17.85
2022-07-31T03:52:15.411Z,17.98
2022-07-31T03:54:44.185Z,20.77
2022-07-31T03:57:15.649Z,18.67
2022-07-31T03:59:48.246Z,18.98
2022-07-31T04:02:18.629Z,19.40
2022-07-31T04:04:45.715Z,18.52
2022-07-31T04:07:14.393Z,18.85
2022-07-31T04:09:43.352Z,20.08
2022-07-31T04:12:12.431Z,22.17
2022-07-31T04:14:41.049Z,20.75
2022-07-31T04:17:12.801Z,23.65
2022-07-31T04:19:41.704Z,21.68
2022-07-31T04:22:10.350Z,21.52
2022-07-31T04:24:39.062Z,21.12
2022-07-31T04:27:12.562Z,27.20
2022-07-31T04:29:38.662Z,26.27
2022-07-31T04:32:07.739Z,24.05
2022-07-31T04:34:36.492Z,23.77
2022-07-31T04:37:06.195Z,23.35
2022-07-31T04:39:35.747Z,20.02
2022-07-31T04:45:33.814Z,21.05
2022-07-31T04:54:11.407Z,20.92
2022-07-31T05:09:19.395Z,26.45
2022-07-31T05:11:50.645Z,17.70
2022-07-31T05:14:21.559Z,22.93
2022-07-31T05:16:51.972Z,16.12
2022-07-31T05:19:21.108Z,17.73
2022-07-31T05:21:53.588Z,16.90
2022-07-31T05:24:33.015Z,19.82
2022-07-31T05:26:54.259Z,18.52
2022-07-31T05:29:22.978Z,18.95
2022-07-31T05:32:00.418Z,15.60
2022-07-31T05:34:23.797Z,16.20
2022-07-31T05:36:52.563Z,13.78
2022-07-31T05:39:22.918Z,15.58
2022-07-31T05:41:52.844Z,18.25
2022-07-31T05:44:22.014Z,13.83
2022-07-31T05:49:27.062Z,21.95
2022-07-31T05:51:58.336Z,17.05
2022-07-31T05:54:37.454Z,14.73
2022-07-31T05:56:58.741Z,14.83
2022-07-31T05:59:31.752Z,15.68
2022-07-31T06:02:03.247Z,11.70
2022-07-31T06:04:33.247Z,17.55
2022-07-31T06:07:02.229Z,14.60
2022-07-31T06:09:32.013Z,17.25
2022-07-31T06:12:01.108Z,16.55
2022-07-31T06:14:33.341Z,17.00
2022-07-31T06:17:06.029Z,12.70
2022-07-31T06:19:37.659Z,17.92
2022-07-31T06:22:06.853Z,12.95
2022-07-31T06:24:38.274Z,15.60
2022-07-31T06:27:09.462Z,13.20
2022-07-31T06:29:43.377Z,13.48
2022-07-31T06:32:12.015Z,19.12
2022-07-31T06:34:42.373Z,15.72
2022-07-31T06:37:12.906Z,15.75
2022-07-31T06:39:55.395Z,16.80
2022-07-31T06:42:13.202Z,13.22
2022-07-31T06:44:46.380Z,18.35
2022-07-31T06:47:14.002Z,14.30
2022-07-31T06:49:42.871Z,16.10
2022-07-31T06:52:12.946Z,18.02
2022-07-31T06:54:41.631Z,20.32
2022-07-31T06:57:10.410Z,21.52
2022-07-31T06:59:40.699Z,19.52
2022-07-31T07:02:10.116Z,23.25
2022-07-31T07:04:56.268Z,18.27
2022-07-31T07:07:12.131Z,16.50
2022-07-31T07:09:43.800Z,20.17
2022-07-31T07:12:16.835Z,16.30
2022-07-31T07:14:45.702Z,21.23
2022-07-31T07:17:15.483Z,20.45
2022-07-31T07:19:44.245Z,19.42
2022-07-31T07:22:15.821Z,18.77
2022-07-31T07:24:46.827Z,20.15
2022-07-31T07:27:15.451Z,17.95
2022-07-31T07:29:46.089Z,19.15
2022-07-31T07:32:16.284Z,20.48
2022-07-31T07:34:46.156Z,18.82
2022-07-31T07:37:14.841Z,20.02
2022-07-31T07:39:45.085Z,22.90
2022-07-31T07:42:13.758Z,23.27
2022-07-31T07:44:44.721Z,22.05
2022-07-31T07:47:21.959Z,26.10
2022-07-31T07:49:50.944Z,58.08
2022-07-31T07:52:19.689Z,23.15
2022-07-31T07:54:48.585Z,25.27
2022-07-31T07:57:18.628Z,22.98
2022-07-31T07:59:50.163Z,23.67
2022-07-31T08:02:20.804Z,23.00
2022-07-31T08:04:52.757Z,20.85
2022-07-31T08:07:42.659Z,22.25
2022-07-31T08:10:03.846Z,17.30
2022-07-31T08:12:33.299Z,23.90
2022-07-31T08:15:02.551Z,15.30
2022-07-31T08:17:31.191Z,18.82
2022-07-31T08:20:05.829Z,16.07
2022-07-31T08:22:39.159Z,17.35
2022-07-31T08:25:15.047Z,17.55
2022-07-31T08:27:47.937Z,14.65
2022-07-31T08:30:18.856Z,18.67
2022-07-31T08:32:52.293Z,14.90
2022-07-31T08:35:23.888Z,15.25
2022-07-31T08:38:03.878Z,17.35
2022-07-31T08:40:43.000Z,16.57
2022-07-31T08:43:59.605Z,16.12
2022-07-31T08:45:53.490Z,12.63
2022-07-31T08:48:36.302Z,16.60
2022-07-31T08:51:09.379Z,13.22
2022-07-31T08:53:48.000Z,12.68
2022-07-31T08:56:20.038Z,14.55
2022-07-31T08:58:55.224Z,14.65
2022-07-31T09:01:38.119Z,16.15
2022-07-31T09:04:11.221Z,12.58
2022-07-31T09:06:44.625Z,16.95
2022-07-31T09:09:19.793Z,12.65
2022-07-31T09:12:00.200Z,14.18
2022-07-31T09:14:32.877Z,13.88
2022-07-31T09:17:09.537Z,13.13
2022-07-31T09:19:54.287Z,14.38
2022-07-31T09:22:33.671Z,15.70
2022-07-31T09:25:19.230Z,14.20
2022-07-31T09:27:51.386Z,14.83
2022-07-31T09:30:20.227Z,15.32
2022-07-31T09:32:49.114Z,17.00
2022-07-31T09:35:20.779Z,66.77
2022-07-31T09:37:56.524Z,16.48
2022-07-31T09:40:36.555Z,16.90
2022-07-31T09:43:09.977Z,18.65
2022-07-31T09:45:48.439Z,19.57
2022-07-31T09:48:15.258Z,23.42
2022-07-31T09:51:00.707Z,19.12
2022-07-31T09:53:31.151Z,20.20
2022-07-31T09:55:59.884Z,19.30
2022-07-31T09:58:31.589Z,20.45
2022-07-31T10:01:01.148Z,18.62
2022-07-31T10:03:30.733Z,19.42
2022-07-31T10:06:02.005Z,20.48
2022-07-31T10:08:33.616Z,20.65
2022-07-31T10:11:07.227Z,21.07
2022-07-31T10:13:42.462Z,30.27
2022-07-31T10:16:12.342Z,21.60
2022-07-31T10:18:48.157Z,20.55
2022-07-31T10:21:18.340Z,19.67
2022-07-31T10:23:52.190Z,19.48
2022-07-31T10:26:34.294Z,18.60
2022-07-31T10:28:53.922Z,19.48
2022-07-31T10:31:28.870Z,15.13
2022-07-31T10:34:00.844Z,12.53
2022-07-31T10:36:39.142Z,13.85
2022-07-31T10:39:15.816Z,12.68
2022-07-31T10:42:22.282Z,13.32
2022-07-31T10:44:58.819Z,15.20
2022-07-31T10:47:32.839Z,15.48
2022-07-31T10:50:01.593Z,13.88
2022-07-31T10:52:39.507Z,16.77
2022-07-31T10:55:23.333Z,15.08
2022-07-31T10:57:56.726Z,17.27
2022-07-31T11:00:29.735Z,13.95
2022-07-31T11:02:58.779Z,12.60
2022-07-31T11:05:29.233Z,11.97
2022-07-31T11:08:11.255Z,11.70
2022-07-31T11:10:43.128Z,13.38
2022-07-31T11:13:17.376Z,12.13
2022-07-31T11:15:46.196Z,11.55
2022-07-31T11:18:24.847Z,11.40
2022-07-31T11:21:13.657Z,13.70
2022-07-31T11:23:36.997Z,12.58
2022-07-31T11:26:08.357Z,13.08
2022-07-31T11:28:39.805Z,14.20
2022-07-31T11:31:09.945Z,14.10
2022-07-31T11:33:43.923Z,15.08
2022-07-31T11:36:23.932Z,13.10
2022-07-31T11:38:57.147Z,14.07
2022-07-31T11:41:38.060Z,15.35
2022-07-31T11:44:02.685Z,14.33
2022-07-31T11:46:38.250Z,12.98
2022-07-31T11:49:07.307Z,16.77
2022-07-31T11:51:35.949Z,13.30
2022-07-31T11:54:04.690Z,14.20
2022-07-31T11:56:34.393Z,14.50
2022-07-31T11:59:05.658Z,21.70
2022-07-31T12:01:36.458Z,12.70
2022-07-31T12:04:09.128Z,16.25
2022-07-31T12:06:39.310Z,12.53
2022-07-31T12:09:08.237Z,11.48
2022-07-31T12:11:42.048Z,11.65
2022-07-31T12:14:12.315Z,11.50
2022-07-31T12:16:44.228Z,12.50
2022-07-31T12:19:13.047Z,11.25
2022-07-31T12:21:52.408Z,15.05
2022-07-31T12:24:23.043Z,12.45
2022-07-31T12:26:58.946Z,12.50
2022-07-31T12:29:39.763Z,10.90
2022-07-31T12:32:09.064Z,11.00
2022-07-31T12:34:39.785Z,10.03
2022-07-31T12:37:11.591Z,10.70
2022-07-31T12:39:59.475Z,10.28
2022-07-31T12:42:41.145Z,9.05
2022-07-31T12:45:19.849Z,9.03
2022-07-31T12:47:51.345Z,9.08
2022-07-31T12:50:22.958Z,7.15
2022-07-31T12:52:52.871Z,8.00
2022-07-31T12:55:32.278Z,9.80
2022-07-31T12:58:01.072Z,9.03
2022-07-31T13:00:52.253Z,10.18
2022-07-31T13:03:05.362Z,11.55
2022-07-31T13:05:39.353Z,9.70
2022-07-31T13:08:08.741Z,9.80
2022-07-31T13:10:37.394Z,10.63
2022-07-31T13:13:09.299Z,10.70
2022-07-31T13:15:39.241Z,9.08
2022-07-31T13:18:09.314Z,10.18
2022-07-31T13:20:38.035Z,10.45
2022-07-31T13:23:06.674Z,10.05
2022-07-31T13:25:35.455Z,10.60
2022-07-31T13:28:04.303Z,12.65
2022-07-31T13:30:37.053Z,10.08
2022-07-31T13:33:05.734Z,8.23
2022-07-31T13:35:35.952Z,8.60
2022-07-31T13:38:04.618Z,8.85
2022-07-31T13:40:51.273Z,8.10
2022-07-31T13:43:19.883Z,10.50
2022-07-31T13:45:50.229Z,9.73
2022-07-31T13:48:20.294Z,9.38
2022-07-31T13:50:49.444Z,10.63
2022-07-31T13:53:18.096Z,9.83
2022-07-31T13:55:50.186Z,10.32
2022-07-31T13:58:18.758Z,12.98
2022-07-31T14:00:47.710Z,10.65
2022-07-31T14:03:21.284Z,9.73
2022-07-31T14:05:53.479Z,9.05
2022-07-31T14:08:33.075Z,8.83
2022-07-31T14:10:59.128Z,9.25
2022-07-31T14:13:30.931Z,11.18
2022-07-31T14:15:59.611Z,21.50
2022-07-31T14:18:32.650Z,11.57
2022-07-31T14:21:03.077Z,10.32
2022-07-31T14:23:35.235Z,7.20
2022-07-31T14:26:04.074Z,8.23
2022-07-31T14:28:32.742Z,14.35
2022-07-31T14:31:01.414Z,7.78
2022-07-31T14:33:31.735Z,9.05
2022-07-31T14:36:03.736Z,10.23
2022-07-31T14:38:35.897Z,8.98
2022-07-31T14:41:08.792Z,9.35
2022-07-31T14:43:43.201Z,11.65
2022-07-31T14:46:19.947Z,7.67
2022-07-31T14:48:48.362Z,7.90
2022-07-31T14:51:20.546Z,8.05
2022-07-31T14:53:58.556Z,6.97
2022-07-31T14:56:58.621Z,6.22
2022-07-31T14:59:01.846Z,9.15
2022-07-31T15:01:35.075Z,6.78
2022-07-31T15:04:05.440Z,7.33
2022-07-31T15:06:49.421Z,9.00
2022-07-31T15:09:06.406Z,7.12
2022-07-31T15:12:00.316Z,7.50
2022-07-31T15:14:05.697Z,10.63
2022-07-31T15:16:34.465Z,7.35
2022-07-31T15:19:06.323Z,6.85
2022-07-31T15:22:11.368Z,7.42
2022-07-31T15:24:29.796Z,10.80
2022-07-31T15:27:04.384Z,6.55
2022-07-31T15:30:05.127Z,10.30
2022-07-31T15:32:03.886Z,7.33
2022-07-31T15:34:37.665Z,7.37
2022-07-31T15:37:09.014Z,7.12
2022-07-31T15:39:41.144Z,8.30
2022-07-31T15:45:10.357Z,8.88
2022-07-31T15:47:50.474Z,8.98
2022-07-31T15:50:25.968Z,8.93
2022-07-31T15:52:58.919Z,7.40
2022-07-31T15:55:35.780Z,7.72
2022-07-31T15:58:04.495Z,7.00
2022-07-31T16:00:39.289Z,6.78
2022-07-31T16:03:10.207Z,7.37
2022-07-31T16:05:55.831Z,8.03
2022-07-31T16:08:29.023Z,9.75
2022-07-31T16:10:54.835Z,7.10
2022-07-31T16:13:25.674Z,7.45
2022-07-31T16:15:58.877Z,6.78
2022-07-31T16:18:27.410Z,6.65
2022-07-31T16:20:56.187Z,7.20
2022-07-31T16:23:30.705Z,6.70
2022-07-31T16:25:57.233Z,6.10
2022-07-31T16:28:34.456Z,6.80
2022-07-31T16:31:03.682Z,6.35
2022-07-31T16:33:35.363Z,6.67
2022-07-31T16:36:03.980Z,6.55
2022-07-31T16:38:34.913Z,10.75
2022-07-31T16:41:03.660Z,8.58
2022-07-31T16:43:47.375Z,7.28
2022-07-31T16:46:02.686Z,6.03
2022-07-31T16:48:31.467Z,8.28
2022-07-31T16:51:00.738Z,6.95
2022-07-31T16:54:09.956Z,7.08
2022-07-31T16:56:02.057Z,7.50
2022-07-31T16:58:31.021Z,7.10
2022-07-31T17:01:01.911Z,6.85
2022-07-31T17:03:58.701Z,6.80
2022-07-31T17:06:01.408Z,9.30
2022-07-31T17:08:30.053Z,6.60
2022-07-31T17:10:58.701Z,7.95
2022-07-31T17:13:27.385Z,7.47
2022-07-31T17:15:56.033Z,10.15
2022-07-31T17:18:25.551Z,7.25
2022-07-31T17:20:56.936Z,7.05
2022-07-31T17:23:43.218Z,7.83
2022-07-31T17:25:56.932Z,8.83
2022-07-31T17:28:25.567Z,11.50
2022-07-31T17:30:54.257Z,8.68
2022-07-31T17:33:22.996Z,9.83
2022-07-31T17:35:53.325Z,7.40
2022-07-31T17:38:22.059Z,10.10
2022-07-31T17:40:51.248Z,8.85
2022-07-31T17:43:20.042Z,6.70
2022-07-31T17:46:05.458Z,7.30
2022-07-31T17:48:22.327Z,8.83
2022-07-31T17:50:54.181Z,9.63
2022-07-31T17:53:21.958Z,7.67
2022-07-31T17:55:52.203Z,7.00
2022-07-31T17:58:21.094Z,9.08
2022-07-31T18:00:49.888Z,7.87
2022-07-31T18:03:18.591Z,6.92
2022-07-31T18:05:48.251Z,6.92
2022-07-31T18:08:16.904Z,7.65
2022-07-31T18:10:54.275Z,7.67
2022-07-31T18:13:16.555Z,10.40
2022-07-31T18:15:45.235Z,9.53
2022-07-31T18:18:14.861Z,5.92
2022-07-31T18:20:45.329Z,6.00
2022-07-31T18:23:15.473Z,9.73
2022-07-31T18:25:44.052Z,7.47
2022-07-31T18:28:12.728Z,7.25
2022-07-31T18:30:42.266Z,8.08
2022-07-31T18:33:18.008Z,8.80
2022-07-31T18:35:46.751Z,13.50
2022-07-31T18:38:21.544Z,11.45
2022-07-31T18:40:50.110Z,8.60
2022-07-31T18:43:19.262Z,11.08
2022-07-31T18:45:47.813Z,8.63
2022-07-31T18:48:16.595Z,11.30
2022-07-31T18:50:58.188Z,13.22
2022-07-31T18:53:17.663Z,11.22
2022-07-31T18:55:50.877Z,11.18
2022-07-31T18:58:25.383Z,9.43
2022-07-31T19:00:55.680Z,9.85
2022-07-31T19:03:26.306Z,13.70
2022-07-31T19:05:55.185Z,10.00
2022-07-31T19:08:24.048Z,5.85
2022-07-31T19:10:54.743Z,7.08
2022-07-31T19:13:23.953Z,17.92
2022-07-31T19:15:53.504Z,6.92
2022-07-31T19:18:27.878Z,9.18
2022-07-31T19:20:56.439Z,8.78
2022-07-31T19:23:24.747Z,13.18
2022-07-31T19:26:03.725Z,9.58
2022-07-31T19:28:27.230Z,8.58
2022-07-31T19:30:56.521Z,11.55
2022-07-31T19:33:25.392Z,11.25
2022-07-31T19:36:00.722Z,8.50
2022-07-31T19:38:26.742Z,9.88
2022-07-31T19:40:55.747Z,12.78
2022-07-31T19:43:24.438Z,13.08
2022-07-31T19:46:09.272Z,7.33
2022-07-31T19:48:23.899Z,9.75
2022-07-31T19:50:52.590Z,7.90
2022-07-31T19:53:22.524Z,6.65
2022-07-31T19:55:51.218Z,6.85
2022-07-31T19:58:21.300Z,6.87
2022-07-31T20:00:50.295Z,7.67
2022-07-31T20:03:19.582Z,6.45
2022-07-31T20:05:48.259Z,6.78
2022-07-31T20:08:17.000Z,7.85
2022-07-31T20:10:45.803Z,7.75
2022-07-31T20:13:14.770Z,6.25
2022-07-31T20:15:51.390Z,6.55
2022-07-31T20:18:26.772Z,9.45
2022-07-31T20:20:53.067Z,9.60
2022-07-31T20:23:22.462Z,6.95
2022-07-31T20:25:53.349Z,6.90
2022-07-31T20:28:22.232Z,9.15
2022-07-31T20:30:52.358Z,8.25
2022-07-31T20:33:21.342Z,6.20
2022-07-31T20:35:50.604Z,7.15
2022-07-31T20:38:20.697Z,6.47
2022-07-31T20:40:53.485Z,7.60
2022-07-31T20:43:21.813Z,6.25
2022-07-31T20:45:50.790Z,9.03
2022-07-31T20:48:21.569Z,8.28
2022-07-31T20:50:50.375Z,7.08
2022-07-31T20:53:21.086Z,10.65
2022-07-31T20:55:50.655Z,7.17
2022-07-31T20:58:21.567Z,7.35
2022-07-31T21:00:51.515Z,6.05
2022-07-31T21:03:21.013Z,8.85
2022-07-31T21:05:50.152Z,6.03
2022-07-31T21:08:19.148Z,5.97
2022-07-31T21:10:48.106Z,5.62
2022-07-31T21:13:17.221Z,7.33
2022-07-31T21:15:48.398Z,9.30
2022-07-31T21:18:19.363Z,7.17
2022-07-31T21:20:53.603Z,6.33
2022-07-31T21:23:21.146Z,5.83
2022-07-31T21:25:50.420Z,7.35
2022-07-31T21:28:19.318Z,6.40
2022-07-31T21:30:49.709Z,6.25
2022-07-31T21:33:18.915Z,7.75
2022-07-31T21:35:48.609Z,7.33
2022-07-31T21:38:18.411Z,6.55
2022-07-31T21:40:52.661Z,8.53
2022-07-31T21:43:22.589Z,5.92
2022-07-31T21:46:01.701Z,6.15
2022-07-31T21:48:27.425Z,8.75
2022-07-31T21:50:57.796Z,5.97
2022-07-31T21:53:26.482Z,6.17
2022-07-31T21:55:55.230Z,6.15
2022-07-31T21:58:23.925Z,5.75
2022-07-31T22:03:00.686Z,8.33
2022-07-31T22:03:37.649Z,6.72
2022-07-31T22:06:26.274Z,6.22
2022-07-31T22:08:55.129Z,8.33
2022-07-31T22:11:25.062Z,5.65
2022-07-31T22:13:56.740Z,5.62
2022-07-31T22:16:25.373Z,5.58
2022-07-31T22:18:58.154Z,6.97
2022-07-31T22:21:27.956Z,5.55
2022-07-31T22:23:58.259Z,9.65
2022-07-31T22:26:29.620Z,5.78
2022-07-31T22:28:58.798Z,7.30
2022-07-31T22:31:27.727Z,6.67
2022-07-31T22:33:56.449Z,7.30
2022-07-31T22:36:26.526Z,8.10
2022-07-31T22:38:57.096Z,6.20
2022-07-31T22:41:29.014Z,6.03
2022-07-31T22:44:12.151Z,7.20
2022-07-31T22:46:29.088Z,7.97
2022-07-31T22:48:59.757Z,8.03
2022-07-31T22:51:28.532Z,5.90
2022-07-31T22:53:58.684Z,9.50
2022-07-31T22:56:27.315Z,6.80
2022-07-31T22:58:57.083Z,5.85
2022-07-31T23:01:25.771Z,6.28
2022-07-31T23:03:54.438Z,5.87
2022-07-31T23:06:31.579Z,5.85
2022-07-31T23:08:56.190Z,7.00
2022-07-31T23:11:26.323Z,5.62
2022-07-31T23:13:56.516Z,9.03
2022-07-31T23:16:27.011Z,4.67
2022-07-31T23:18:55.677Z,9.98
2022-07-31T23:21:24.949Z,8.43
2022-07-31T23:23:58.301Z,4.97
2022-07-31T23:26:28.239Z,6.45
2022-07-31T23:28:57.929Z,8.58
2022-07-31T23:31:28.047Z,4.85
2022-07-31T23:33:56.770Z,4.28
2022-07-31T23:36:25.781Z,3.05
2022-07-31T23:38:55.468Z,3.50
2022-07-31T23:41:42.111Z,4.67
2022-07-31T23:44:10.867Z,4.28
2022-07-31T23:46:39.585Z,5.95
2022-07-31T23:49:12.680Z,3.37
2022-07-31T23:51:41.331Z,4.87
2022-07-31T23:54:10.025Z,5.03
2022-07-31T23:56:38.565Z,3.42
2022-07-31T23:59:07.184Z,6.40
